sensor_id;sensor_type;location;lat;lon;timestamp;P1;durP1;ratioP1;P2;durP2;ratioP2
22150;SDS011;11241;47.078;15.462;2022-07-18T00:00:16;5.68;;;3.15;;
22150;SDS011;11241;47.078;15.462;2022-07-18T00:02:33;4.63;;;2.85;;
22150;SDS011;11241;47.078;15.462;2022-07-18T00:04:51;5.93;;;3.10;;
22150;SDS011;11241;47.078;15.462;2022-07-18T00:07:09;5.38;;;3.28;;
22150;SDS011;11241;47.078;15.462;2022-07-18T00:09:27;4.45;;;2.92;;
22150;SDS011;11241;47.078;15.462;2022-07-18T00:11:51;6.63;;;3.33;;
22150;SDS011;11241;47.078;15.462;2022-07-18T00:14:09;4.40;;;3.22;;
22150;SDS011;11241;47.078;15.462;2022-07-18T00:16:27;11.05;;;3.47;;
22150;SDS011;11241;47.078;15.462;2022-07-18T00:18:46;6.00;;;3.38;;
22150;SDS011;11241;47.078;15.462;2022-07-18T00:21:04;4.95;;;3.17;;
22150;SDS011;11241;47.078;15.462;2022-07-18T00:23:22;6.07;;;2.88;;
22150;SDS011;11241;47.078;15.462;2022-07-18T00:25:40;4.95;;;3.40;;
22150;SDS011;11241;47.078;15.462;2022-07-18T00:27:58;4.70;;;3.30;;
22150;SDS011;11241;47.078;15.462;2022-07-18T00:30:15;5.90;;;3.30;;
22150;SDS011;11241;47.078;15.462;2022-07-18T00:32:33;4.97;;;3.30;;
22150;SDS011;11241;47.078;15.462;2022-07-18T00:34:51;5.93;;;3.08;;
22150;SDS011;11241;47.078;15.462;2022-07-18T00:37:09;6.90;;;3.55;;
22150;SDS011;11241;47.078;15.462;2022-07-18T00:39:27;6.18;;;3.42;;
22150;SDS011;11241;47.078;15.462;2022-07-18T00:41:46;5.60;;;3.55;;
22150;SDS011;11241;47.078;15.462;2022-07-18T00:44:04;10.05;;;3.33;;
22150;SDS011;11241;47.078;15.462;2022-07-18T00:46:22;4.95;;;3.00;;
22150;SDS011;11241;47.078;15.462;2022-07-18T00:48:41;4.53;;;3.30;;
22150;SDS011;11241;47.078;15.462;2022-07-18T00:50:59;4.82;;;3.33;;
22150;SDS011;11241;47.078;15.462;2022-07-18T00:53:17;6.22;;;3.40;;
22150;SDS011;11241;47.078;15.462;2022-07-18T00:55:35;4.00;;;3.22;;
22150;SDS011;11241;47.078;15.462;2022-07-18T00:57:54;5.38;;;3.30;;
22150;SDS011;11241;47.078;15.462;2022-07-18T01:00:13;4.40;;;3.28;;
22150;SDS011;11241;47.078;15.462;2022-07-18T01:02:50;5.20;;;3.38;;
22150;SDS011;11241;47.078;15.462;2022-07-18T01:05:08;6.13;;;3.38;;
22150;SDS011;11241;47.078;15.462;2022-07-18T01:07:26;3.53;;;3.22;;
22150;SDS011;11241;47.078;15.462;2022-07-18T01:09:44;5.70;;;3.20;;
22150;SDS011;11241;47.078;15.462;2022-07-18T01:12:02;4.95;;;2.92;;
22150;SDS011;11241;47.078;15.462;2022-07-18T01:14:20;5.35;;;3.10;;
22150;SDS011;11241;47.078;15.462;2022-07-18T01:16:38;5.97;;;3.38;;
22150;SDS011;11241;47.078;15.462;2022-07-18T01:18:56;6.22;;;3.30;;
22150;SDS011;11241;47.078;15.462;2022-07-18T01:21:14;5.32;;;3.33;;
22150;SDS011;11241;47.078;15.462;2022-07-18T01:23:32;4.55;;;3.25;;
22150;SDS011;11241;47.078;15.462;2022-07-18T01:25:50;5.70;;;3.50;;
22150;SDS011;11241;47.078;15.462;2022-07-18T01:28:08;3.42;;;3.05;;
22150;SDS011;11241;47.078;15.462;2022-07-18T01:30:26;5.10;;;3.03;;
22150;SDS011;11241;47.078;15.462;2022-07-18T01:32:44;4.07;;;3.08;;
22150;SDS011;11241;47.078;15.462;2022-07-18T01:35:02;4.93;;;3.53;;
22150;SDS011;11241;47.078;15.462;2022-07-18T01:37:20;8.50;;;3.42;;
22150;SDS011;11241;47.078;15.462;2022-07-18T01:39:39;4.63;;;3.20;;
22150;SDS011;11241;47.078;15.462;2022-07-18T01:41:58;3.75;;;3.17;;
22150;SDS011;11241;47.078;15.462;2022-07-18T01:44:15;5.47;;;3.33;;
22150;SDS011;11241;47.078;15.462;2022-07-18T01:46:33;3.80;;;3.33;;
22150;SDS011;11241;47.078;15.462;2022-07-18T01:48:52;8.60;;;3.42;;
22150;SDS011;11241;47.078;15.462;2022-07-18T01:51:09;6.05;;;3.42;;
22150;SDS011;11241;47.078;15.462;2022-07-18T01:53:27;5.35;;;3.05;;
22150;SDS011;11241;47.078;15.462;2022-07-18T01:55:45;7.47;;;3.85;;
22150;SDS011;11241;47.078;15.462;2022-07-18T01:58:04;4.65;;;3.65;;
22150;SDS011;11241;47.078;15.462;2022-07-18T02:00:22;4.38;;;3.45;;
22150;SDS011;11241;47.078;15.462;2022-07-18T02:02:40;6.55;;;3.50;;
22150;SDS011;11241;47.078;15.462;2022-07-18T02:04:58;6.97;;;3.45;;
22150;SDS011;11241;47.078;15.462;2022-07-18T02:07:16;6.63;;;3.80;;
22150;SDS011;11241;47.078;15.462;2022-07-18T02:09:34;5.88;;;3.65;;
22150;SDS011;11241;47.078;15.462;2022-07-18T02:11:52;3.30;;;3.00;;
22150;SDS011;11241;47.078;15.462;2022-07-18T02:14:10;6.60;;;3.25;;
22150;SDS011;11241;47.078;15.462;2022-07-18T02:16:27;6.03;;;3.13;;
22150;SDS011;11241;47.078;15.462;2022-07-18T02:18:46;6.68;;;3.38;;
22150;SDS011;11241;47.078;15.462;2022-07-18T02:21:04;5.43;;;3.38;;
22150;SDS011;11241;47.078;15.462;2022-07-18T02:23:22;4.53;;;3.60;;
22150;SDS011;11241;47.078;15.462;2022-07-18T02:25:40;6.30;;;3.20;;
22150;SDS011;11241;47.078;15.462;2022-07-18T02:27:57;5.88;;;3.17;;
22150;SDS011;11241;47.078;15.462;2022-07-18T02:30:15;5.22;;;3.47;;
22150;SDS011;11241;47.078;15.462;2022-07-18T02:32:33;4.45;;;3.13;;
22150;SDS011;11241;47.078;15.462;2022-07-18T02:34:54;5.75;;;3.47;;
22150;SDS011;11241;47.078;15.462;2022-07-18T02:37:12;4.47;;;3.30;;
22150;SDS011;11241;47.078;15.462;2022-07-18T02:39:30;6.20;;;3.20;;
22150;SDS011;11241;47.078;15.462;2022-07-18T02:41:48;4.82;;;3.47;;
22150;SDS011;11241;47.078;15.462;2022-07-18T02:44:05;7.85;;;3.60;;
22150;SDS011;11241;47.078;15.462;2022-07-18T02:46:23;6.47;;;3.40;;
22150;SDS011;11241;47.078;15.462;2022-07-18T02:48:41;6.75;;;3.38;;
22150;SDS011;11241;47.078;15.462;2022-07-18T02:50:59;5.03;;;3.60;;
22150;SDS011;11241;47.078;15.462;2022-07-18T02:53:17;4.18;;;3.40;;
22150;SDS011;11241;47.078;15.462;2022-07-18T02:55:36;4.95;;;3.58;;
22150;SDS011;11241;47.078;15.462;2022-07-18T02:57:54;5.40;;;3.50;;
22150;SDS011;11241;47.078;15.462;2022-07-18T03:00:12;4.88;;;3.50;;
22150;SDS011;11241;47.078;15.462;2022-07-18T03:02:31;6.85;;;3.30;;
22150;SDS011;11241;47.078;15.462;2022-07-18T03:04:48;6.53;;;3.05;;
22150;SDS011;11241;47.078;15.462;2022-07-18T03:07:06;5.90;;;3.53;;
22150;SDS011;11241;47.078;15.462;2022-07-18T03:09:24;6.25;;;3.88;;
22150;SDS011;11241;47.078;15.462;2022-07-18T03:11:44;6.22;;;3.47;;
22150;SDS011;11241;47.078;15.462;2022-07-18T03:14:03;5.15;;;3.45;;
22150;SDS011;11241;47.078;15.462;2022-07-18T03:16:21;8.45;;;3.30;;
22150;SDS011;11241;47.078;15.462;2022-07-18T03:18:39;5.25;;;3.50;;
22150;SDS011;11241;47.078;15.462;2022-07-18T03:20:56;5.32;;;3.47;;
22150;SDS011;11241;47.078;15.462;2022-07-18T03:23:14;10.63;;;4.13;;
22150;SDS011;11241;47.078;15.462;2022-07-18T03:25:32;10.30;;;4.00;;
22150;SDS011;11241;47.078;15.462;2022-07-18T03:27:50;6.40;;;3.35;;
22150;SDS011;11241;47.078;15.462;2022-07-18T03:30:08;4.47;;;3.00;;
22150;SDS011;11241;47.078;15.462;2022-07-18T03:32:26;5.68;;;3.25;;
22150;SDS011;11241;47.078;15.462;2022-07-18T03:34:44;9.70;;;3.60;;
22150;SDS011;11241;47.078;15.462;2022-07-18T03:37:02;4.03;;;3.38;;
22150;SDS011;11241;47.078;15.462;2022-07-18T03:39:20;4.00;;;2.58;;
22150;SDS011;11241;47.078;15.462;2022-07-18T03:41:38;7.50;;;3.58;;
22150;SDS011;11241;47.078;15.462;2022-07-18T03:43:56;5.47;;;3.60;;
22150;SDS011;11241;47.078;15.462;2022-07-18T03:46:14;6.32;;;3.45;;
22150;SDS011;11241;47.078;15.462;2022-07-18T03:48:31;7.38;;;3.70;;
22150;SDS011;11241;47.078;15.462;2022-07-18T03:50:49;5.43;;;3.60;;
22150;SDS011;11241;47.078;15.462;2022-07-18T03:53:07;5.78;;;3.53;;
22150;SDS011;11241;47.078;15.462;2022-07-18T03:55:25;7.45;;;3.33;;
22150;SDS011;11241;47.078;15.462;2022-07-18T03:57:43;6.53;;;3.38;;
22150;SDS011;11241;47.078;15.462;2022-07-18T04:00:00;3.92;;;3.53;;
22150;SDS011;11241;47.078;15.462;2022-07-18T04:02:27;5.30;;;3.60;;
22150;SDS011;11241;47.078;15.462;2022-07-18T04:04:45;7.20;;;3.72;;
22150;SDS011;11241;47.078;15.462;2022-07-18T04:07:03;7.35;;;4.38;;
22150;SDS011;11241;47.078;15.462;2022-07-18T04:09:20;10.43;;;3.85;;
22150;SDS011;11241;47.078;15.462;2022-07-18T04:11:38;4.53;;;3.35;;
22150;SDS011;11241;47.078;15.462;2022-07-18T04:13:56;6.70;;;3.67;;
22150;SDS011;11241;47.078;15.462;2022-07-18T04:16:14;6.80;;;3.53;;
22150;SDS011;11241;47.078;15.462;2022-07-18T04:18:32;6.07;;;3.88;;
22150;SDS011;11241;47.078;15.462;2022-07-18T04:20:55;5.57;;;4.03;;
22150;SDS011;11241;47.078;15.462;2022-07-18T04:23:13;6.57;;;3.42;;
22150;SDS011;11241;47.078;15.462;2022-07-18T04:25:35;12.65;;;4.15;;
22150;SDS011;11241;47.078;15.462;2022-07-18T04:27:54;8.15;;;4.18;;
22150;SDS011;11241;47.078;15.462;2022-07-18T04:30:12;8.27;;;3.70;;
22150;SDS011;11241;47.078;15.462;2022-07-18T04:32:30;6.75;;;3.85;;
22150;SDS011;11241;47.078;15.462;2022-07-18T04:34:48;5.32;;;3.83;;
22150;SDS011;11241;47.078;15.462;2022-07-18T04:37:06;5.13;;;3.50;;
22150;SDS011;11241;47.078;15.462;2022-07-18T04:39:24;7.00;;;3.90;;
22150;SDS011;11241;47.078;15.462;2022-07-18T04:41:42;6.18;;;4.13;;
22150;SDS011;11241;47.078;15.462;2022-07-18T04:44:00;6.60;;;4.15;;
22150;SDS011;11241;47.078;15.462;2022-07-18T04:46:18;7.50;;;3.35;;
22150;SDS011;11241;47.078;15.462;2022-07-18T04:48:36;7.88;;;4.15;;
22150;SDS011;11241;47.078;15.462;2022-07-18T04:50:55;8.10;;;4.25;;
22150;SDS011;11241;47.078;15.462;2022-07-18T04:53:16;4.70;;;3.95;;
22150;SDS011;11241;47.078;15.462;2022-07-18T04:55:34;6.20;;;3.97;;
22150;SDS011;11241;47.078;15.462;2022-07-18T04:57:52;5.70;;;3.85;;
22150;SDS011;11241;47.078;15.462;2022-07-18T05:00:11;11.13;;;4.25;;
22150;SDS011;11241;47.078;15.462;2022-07-18T05:02:29;5.97;;;3.90;;
22150;SDS011;11241;47.078;15.462;2022-07-18T05:04:47;6.22;;;3.85;;
22150;SDS011;11241;47.078;15.462;2022-07-18T05:07:05;7.22;;;4.25;;
22150;SDS011;11241;47.078;15.462;2022-07-18T05:09:23;7.60;;;4.10;;
22150;SDS011;11241;47.078;15.462;2022-07-18T05:11:41;7.60;;;4.07;;
22150;SDS011;11241;47.078;15.462;2022-07-18T05:13:59;9.07;;;4.22;;
22150;SDS011;11241;47.078;15.462;2022-07-18T05:16:17;5.72;;;4.18;;
22150;SDS011;11241;47.078;15.462;2022-07-18T05:18:35;7.70;;;4.50;;
22150;SDS011;11241;47.078;15.462;2022-07-18T05:20:53;9.82;;;4.47;;
22150;SDS011;11241;47.078;15.462;2022-07-18T05:23:15;10.30;;;4.47;;
22150;SDS011;11241;47.078;15.462;2022-07-18T05:25:33;9.63;;;4.43;;
22150;SDS011;11241;47.078;15.462;2022-07-18T05:27:51;6.45;;;4.15;;
22150;SDS011;11241;47.078;15.462;2022-07-18T05:30:10;5.03;;;4.35;;
22150;SDS011;11241;47.078;15.462;2022-07-18T05:32:29;6.70;;;4.20;;
22150;SDS011;11241;47.078;15.462;2022-07-18T05:34:47;7.60;;;4.40;;
22150;SDS011;11241;47.078;15.462;2022-07-18T05:37:04;9.82;;;4.38;;
22150;SDS011;11241;47.078;15.462;2022-07-18T05:39:22;10.55;;;4.82;;
22150;SDS011;11241;47.078;15.462;2022-07-18T05:41:40;7.75;;;4.72;;
22150;SDS011;11241;47.078;15.462;2022-07-18T05:43:58;14.32;;;4.68;;
22150;SDS011;11241;47.078;15.462;2022-07-18T05:46:16;7.82;;;4.20;;
22150;SDS011;11241;47.078;15.462;2022-07-18T05:48:34;9.75;;;4.82;;
22150;SDS011;11241;47.078;15.462;2022-07-18T05:50:52;11.93;;;4.68;;
22150;SDS011;11241;47.078;15.462;2022-07-18T05:53:10;7.50;;;4.85;;
22150;SDS011;11241;47.078;15.462;2022-07-18T05:55:28;8.95;;;4.60;;
22150;SDS011;11241;47.078;15.462;2022-07-18T05:57:46;12.82;;;5.18;;
22150;SDS011;11241;47.078;15.462;2022-07-18T06:00:04;11.25;;;4.75;;
22150;SDS011;11241;47.078;15.462;2022-07-18T06:02:24;7.20;;;4.20;;
22150;SDS011;11241;47.078;15.462;2022-07-18T06:04:42;9.70;;;4.13;;
22150;SDS011;11241;47.078;15.462;2022-07-18T06:07:19;7.75;;;4.50;;
22150;SDS011;11241;47.078;15.462;2022-07-18T06:09:37;5.85;;;3.78;;
22150;SDS011;11241;47.078;15.462;2022-07-18T06:11:55;6.82;;;4.10;;
22150;SDS011;11241;47.078;15.462;2022-07-18T06:14:13;5.50;;;4.35;;
22150;SDS011;11241;47.078;15.462;2022-07-18T06:16:31;8.68;;;4.40;;
22150;SDS011;11241;47.078;15.462;2022-07-18T06:18:49;11.45;;;4.38;;
22150;SDS011;11241;47.078;15.462;2022-07-18T06:21:07;8.52;;;4.30;;
22150;SDS011;11241;47.078;15.462;2022-07-18T06:23:25;9.38;;;4.20;;
22150;SDS011;11241;47.078;15.462;2022-07-18T06:25:43;8.93;;;3.95;;
22150;SDS011;11241;47.078;15.462;2022-07-18T06:28:01;6.18;;;3.70;;
22150;SDS011;11241;47.078;15.462;2022-07-18T06:30:19;12.40;;;4.15;;
22150;SDS011;11241;47.078;15.462;2022-07-18T06:32:40;11.43;;;4.05;;
22150;SDS011;11241;47.078;15.462;2022-07-18T06:34:58;8.20;;;3.80;;
22150;SDS011;11241;47.078;15.462;2022-07-18T06:37:16;5.88;;;3.90;;
22150;SDS011;11241;47.078;15.462;2022-07-18T06:39:33;5.68;;;3.47;;
22150;SDS011;11241;47.078;15.462;2022-07-18T06:41:51;5.82;;;3.22;;
22150;SDS011;11241;47.078;15.462;2022-07-18T06:44:09;5.30;;;3.45;;
22150;SDS011;11241;47.078;15.462;2022-07-18T06:46:27;10.57;;;3.70;;
22150;SDS011;11241;47.078;15.462;2022-07-18T06:48:45;5.35;;;3.40;;
22150;SDS011;11241;47.078;15.462;2022-07-18T06:51:03;6.30;;;3.00;;
22150;SDS011;11241;47.078;15.462;2022-07-18T06:53:22;8.32;;;2.80;;
22150;SDS011;11241;47.078;15.462;2022-07-18T06:55:40;8.88;;;2.90;;
22150;SDS011;11241;47.078;15.462;2022-07-18T06:57:57;5.93;;;3.35;;
22150;SDS011;11241;47.078;15.462;2022-07-18T07:00:15;8.50;;;3.17;;
22150;SDS011;11241;47.078;15.462;2022-07-18T07:02:33;4.53;;;2.80;;
22150;SDS011;11241;47.078;15.462;2022-07-18T07:04:51;11.18;;;2.85;;
22150;SDS011;11241;47.078;15.462;2022-07-18T07:07:09;8.98;;;3.10;;
22150;SDS011;11241;47.078;15.462;2022-07-18T07:09:27;7.60;;;3.25;;
22150;SDS011;11241;47.078;15.462;2022-07-18T07:11:45;8.43;;;3.13;;
22150;SDS011;11241;47.078;15.462;2022-07-18T07:14:03;5.13;;;3.47;;
22150;SDS011;11241;47.078;15.462;2022-07-18T07:16:21;4.15;;;2.83;;
22150;SDS011;11241;47.078;15.462;2022-07-18T07:18:39;5.53;;;2.72;;
22150;SDS011;11241;47.078;15.462;2022-07-18T07:20:57;4.00;;;3.05;;
22150;SDS011;11241;47.078;15.462;2022-07-18T07:23:15;5.03;;;2.90;;
22150;SDS011;11241;47.078;15.462;2022-07-18T07:25:34;6.35;;;2.95;;
22150;SDS011;11241;47.078;15.462;2022-07-18T07:27:53;6.57;;;3.08;;
22150;SDS011;11241;47.078;15.462;2022-07-18T07:30:12;9.82;;;3.28;;
22150;SDS011;11241;47.078;15.462;2022-07-18T07:32:34;3.85;;;2.72;;
22150;SDS011;11241;47.078;15.462;2022-07-18T07:34:52;7.70;;;3.22;;
22150;SDS011;11241;47.078;15.462;2022-07-18T07:37:10;7.15;;;3.08;;
22150;SDS011;11241;47.078;15.462;2022-07-18T07:39:27;5.93;;;3.05;;
22150;SDS011;11241;47.078;15.462;2022-07-18T07:41:45;7.32;;;3.33;;
22150;SDS011;11241;47.078;15.462;2022-07-18T07:44:07;5.80;;;3.30;;
22150;SDS011;11241;47.078;15.462;2022-07-18T07:46:25;8.13;;;3.10;;
22150;SDS011;11241;47.078;15.462;2022-07-18T07:48:43;9.00;;;3.00;;
22150;SDS011;11241;47.078;15.462;2022-07-18T07:51:01;3.85;;;3.22;;
22150;SDS011;11241;47.078;15.462;2022-07-18T07:53:20;5.35;;;3.00;;
22150;SDS011;11241;47.078;15.462;2022-07-18T07:55:38;6.32;;;3.10;;
22150;SDS011;11241;47.078;15.462;2022-07-18T07:57:56;5.70;;;2.88;;
22150;SDS011;11241;47.078;15.462;2022-07-18T08:00:14;6.45;;;2.90;;
22150;SDS011;11241;47.078;15.462;2022-07-18T08:02:32;6.93;;;2.88;;
22150;SDS011;11241;47.078;15.462;2022-07-18T08:04:49;18.55;;;3.15;;
22150;SDS011;11241;47.078;15.462;2022-07-18T08:07:07;8.50;;;3.28;;
22150;SDS011;11241;47.078;15.462;2022-07-18T08:09:26;6.95;;;3.25;;
22150;SDS011;11241;47.078;15.462;2022-07-18T08:11:44;5.38;;;2.95;;
22150;SDS011;11241;47.078;15.462;2022-07-18T08:14:01;4.65;;;2.80;;
22150;SDS011;11241;47.078;15.462;2022-07-18T08:16:19;5.88;;;3.20;;
22150;SDS011;11241;47.078;15.462;2022-07-18T08:18:37;5.50;;;2.97;;
22150;SDS011;11241;47.078;15.462;2022-07-18T08:20:55;7.55;;;2.95;;
22150;SDS011;11241;47.078;15.462;2022-07-18T08:23:13;5.07;;;2.78;;
22150;SDS011;11241;47.078;15.462;2022-07-18T08:25:33;6.32;;;2.95;;
22150;SDS011;11241;47.078;15.462;2022-07-18T08:27:51;6.88;;;2.80;;
22150;SDS011;11241;47.078;15.462;2022-07-18T08:30:09;4.60;;;2.63;;
22150;SDS011;11241;47.078;15.462;2022-07-18T08:32:27;6.07;;;2.95;;
22150;SDS011;11241;47.078;15.462;2022-07-18T08:34:46;5.88;;;2.63;;
22150;SDS011;11241;47.078;15.462;2022-07-18T08:37:04;4.00;;;2.80;;
22150;SDS011;11241;47.078;15.462;2022-07-18T08:39:22;5.80;;;2.65;;
22150;SDS011;11241;47.078;15.462;2022-07-18T08:41:40;8.40;;;3.20;;
22150;SDS011;11241;47.078;15.462;2022-07-18T08:44:03;4.53;;;2.38;;
22150;SDS011;11241;47.078;15.462;2022-07-18T08:46:22;7.85;;;2.38;;
22150;SDS011;11241;47.078;15.462;2022-07-18T08:48:41;4.95;;;2.63;;
22150;SDS011;11241;47.078;15.462;2022-07-18T08:50:59;3.67;;;2.45;;
22150;SDS011;11241;47.078;15.462;2022-07-18T08:53:18;4.85;;;2.72;;
22150;SDS011;11241;47.078;15.462;2022-07-18T08:55:36;6.50;;;3.17;;
22150;SDS011;11241;47.078;15.462;2022-07-18T08:57:54;3.90;;;2.17;;
22150;SDS011;11241;47.078;15.462;2022-07-18T09:00:12;6.72;;;2.78;;
22150;SDS011;11241;47.078;15.462;2022-07-18T09:02:30;4.07;;;2.83;;
22150;SDS011;11241;47.078;15.462;2022-07-18T09:04:48;5.60;;;2.88;;
22150;SDS011;11241;47.078;15.462;2022-07-18T09:07:26;7.63;;;2.90;;
22150;SDS011;11241;47.078;15.462;2022-07-18T09:09:51;5.75;;;2.70;;
22150;SDS011;11241;47.078;15.462;2022-07-18T09:12:09;5.22;;;2.78;;
22150;SDS011;11241;47.078;15.462;2022-07-18T09:16:59;4.53;;;2.85;;
22150;SDS011;11241;47.078;15.462;2022-07-18T09:19:17;5.40;;;2.28;;
22150;SDS011;11241;47.078;15.462;2022-07-18T09:21:36;5.57;;;2.28;;
22150;SDS011;11241;47.078;15.462;2022-07-18T09:23:55;4.75;;;2.50;;
22150;SDS011;11241;47.078;15.462;2022-07-18T09:26:13;6.40;;;2.80;;
22150;SDS011;11241;47.078;15.462;2022-07-18T09:28:53;6.50;;;3.00;;
22150;SDS011;11241;47.078;15.462;2022-07-18T09:31:31;8.02;;;3.60;;
22150;SDS011;11241;47.078;15.462;2022-07-18T09:34:02;9.63;;;2.75;;
22150;SDS011;11241;47.078;15.462;2022-07-18T09:36:21;6.00;;;2.40;;
22150;SDS011;11241;47.078;15.462;2022-07-18T09:38:39;3.92;;;2.45;;
22150;SDS011;11241;47.078;15.462;2022-07-18T09:40:56;4.88;;;2.42;;
22150;SDS011;11241;47.078;15.462;2022-07-18T09:43:15;6.80;;;3.58;;
22150;SDS011;11241;47.078;15.462;2022-07-18T09:45:47;7.28;;;2.78;;
22150;SDS011;11241;47.078;15.462;2022-07-18T09:48:06;9.65;;;2.80;;
22150;SDS011;11241;47.078;15.462;2022-07-18T09:50:25;6.95;;;3.05;;
22150;SDS011;11241;47.078;15.462;2022-07-18T09:52:44;6.38;;;2.85;;
22150;SDS011;11241;47.078;15.462;2022-07-18T09:55:03;4.35;;;2.40;;
22150;SDS011;11241;47.078;15.462;2022-07-18T09:57:26;2.55;;;2.33;;
22150;SDS011;11241;47.078;15.462;2022-07-18T09:59:44;10.07;;;2.88;;
22150;SDS011;11241;47.078;15.462;2022-07-18T10:02:04;7.78;;;2.40;;
22150;SDS011;11241;47.078;15.462;2022-07-18T10:04:22;4.32;;;2.33;;
22150;SDS011;11241;47.078;15.462;2022-07-18T10:06:40;4.40;;;2.30;;
22150;SDS011;11241;47.078;15.462;2022-07-18T10:08:59;5.38;;;2.45;;
22150;SDS011;11241;47.078;15.462;2022-07-18T10:11:17;3.63;;;2.45;;
22150;SDS011;11241;47.078;15.462;2022-07-18T10:13:37;3.95;;;2.40;;
22150;SDS011;11241;47.078;15.462;2022-07-18T10:15:55;7.57;;;2.70;;
22150;SDS011;11241;47.078;15.462;2022-07-18T10:18:14;7.13;;;2.65;;
22150;SDS011;11241;47.078;15.462;2022-07-18T10:20:47;4.85;;;2.33;;
22150;SDS011;11241;47.078;15.462;2022-07-18T10:23:11;5.10;;;2.40;;
22150;SDS011;11241;47.078;15.462;2022-07-18T10:25:30;5.90;;;2.30;;
22150;SDS011;11241;47.078;15.462;2022-07-18T10:27:49;6.65;;;2.47;;
22150;SDS011;11241;47.078;15.462;2022-07-18T10:30:10;4.22;;;2.25;;
22150;SDS011;11241;47.078;15.462;2022-07-18T10:32:33;3.50;;;2.40;;
22150;SDS011;11241;47.078;15.462;2022-07-18T10:34:51;5.47;;;2.40;;
22150;SDS011;11241;47.078;15.462;2022-07-18T10:37:09;9.30;;;2.70;;
22150;SDS011;11241;47.078;15.462;2022-07-18T10:39:34;8.48;;;2.33;;
22150;SDS011;11241;47.078;15.462;2022-07-18T10:47:06;3.50;;;2.28;;
22150;SDS011;11241;47.078;15.462;2022-07-18T10:52:38;14.68;;;2.40;;
22150;SDS011;11241;47.078;15.462;2022-07-18T10:57:25;4.78;;;2.40;;
22150;SDS011;11241;47.078;15.462;2022-07-18T10:59:58;5.22;;;2.50;;
22150;SDS011;11241;47.078;15.462;2022-07-18T11:02:17;3.05;;;2.10;;
22150;SDS011;11241;47.078;15.462;2022-07-18T11:04:46;5.03;;;2.10;;
22150;SDS011;11241;47.078;15.462;2022-07-18T11:07:06;5.38;;;2.42;;
22150;SDS011;11241;47.078;15.462;2022-07-18T11:09:37;6.28;;;2.25;;
22150;SDS011;11241;47.078;15.462;2022-07-18T11:17:08;3.55;;;1.95;;
22150;SDS011;11241;47.078;15.462;2022-07-18T11:19:26;4.05;;;2.25;;
22150;SDS011;11241;47.078;15.462;2022-07-18T11:21:44;4.43;;;2.30;;
22150;SDS011;11241;47.078;15.462;2022-07-18T11:26:23;6.47;;;2.03;;
22150;SDS011;11241;47.078;15.462;2022-07-18T11:28:41;4.85;;;2.30;;
22150;SDS011;11241;47.078;15.462;2022-07-18T11:31:07;3.30;;;1.92;;
22150;SDS011;11241;47.078;15.462;2022-07-18T11:33:28;5.65;;;2.20;;
22150;SDS011;11241;47.078;15.462;2022-07-18T11:35:46;3.67;;;2.05;;
22150;SDS011;11241;47.078;15.462;2022-07-18T11:38:04;4.43;;;2.10;;
22150;SDS011;11241;47.078;15.462;2022-07-18T11:40:22;5.03;;;2.20;;
22150;SDS011;11241;47.078;15.462;2022-07-18T11:42:40;10.18;;;2.50;;
22150;SDS011;11241;47.078;15.462;2022-07-18T11:44:58;3.00;;;1.80;;
22150;SDS011;11241;47.078;15.462;2022-07-18T11:47:17;4.80;;;2.13;;
22150;SDS011;11241;47.078;15.462;2022-07-18T11:49:35;3.53;;;2.20;;
22150;SDS011;11241;47.078;15.462;2022-07-18T11:51:53;3.03;;;1.85;;
22150;SDS011;11241;47.078;15.462;2022-07-18T11:54:11;3.80;;;1.95;;
22150;SDS011;11241;47.078;15.462;2022-07-18T11:56:30;3.38;;;1.95;;
22150;SDS011;11241;47.078;15.462;2022-07-18T11:58:48;4.95;;;2.30;;
22150;SDS011;11241;47.078;15.462;2022-07-18T12:01:07;5.65;;;2.22;;
22150;SDS011;11241;47.078;15.462;2022-07-18T12:03:25;5.88;;;2.00;;
22150;SDS011;11241;47.078;15.462;2022-07-18T12:05:45;4.47;;;1.90;;
22150;SDS011;11241;47.078;15.462;2022-07-18T12:11:02;4.28;;;2.05;;
22150;SDS011;11241;47.078;15.462;2022-07-18T12:13:20;6.20;;;2.10;;
22150;SDS011;11241;47.078;15.462;2022-07-18T12:15:39;6.10;;;2.25;;
22150;SDS011;11241;47.078;15.462;2022-07-18T12:17:57;5.05;;;2.08;;
22150;SDS011;11241;47.078;15.462;2022-07-18T12:20:16;4.57;;;2.13;;
22150;SDS011;11241;47.078;15.462;2022-07-18T12:22:34;3.45;;;1.95;;
22150;SDS011;11241;47.078;15.462;2022-07-18T12:24:53;8.20;;;2.25;;
22150;SDS011;11241;47.078;15.462;2022-07-18T12:32:25;4.25;;;2.10;;
22150;SDS011;11241;47.078;15.462;2022-07-18T12:35:02;3.90;;;2.20;;
22150;SDS011;11241;47.078;15.462;2022-07-18T12:37:24;4.78;;;2.13;;
22150;SDS011;11241;47.078;15.462;2022-07-18T12:39:42;7.93;;;2.72;;
22150;SDS011;11241;47.078;15.462;2022-07-18T12:42:31;4.18;;;2.30;;
22150;SDS011;11241;47.078;15.462;2022-07-18T12:44:49;2.95;;;2.25;;
22150;SDS011;11241;47.078;15.462;2022-07-18T12:47:06;3.08;;;1.90;;
22150;SDS011;11241;47.078;15.462;2022-07-18T12:49:24;4.88;;;2.25;;
22150;SDS011;11241;47.078;15.462;2022-07-18T12:51:42;3.08;;;2.17;;
22150;SDS011;11241;47.078;15.462;2022-07-18T12:54:00;2.40;;;2.00;;
22150;SDS011;11241;47.078;15.462;2022-07-18T12:56:18;6.82;;;2.65;;
22150;SDS011;11241;47.078;15.462;2022-07-18T12:58:36;4.05;;;2.38;;
22150;SDS011;11241;47.078;15.462;2022-07-18T13:00:54;2.83;;;2.10;;
22150;SDS011;11241;47.078;15.462;2022-07-18T13:03:20;3.50;;;2.25;;
22150;SDS011;11241;47.078;15.462;2022-07-18T13:05:38;3.70;;;2.28;;
22150;SDS011;11241;47.078;15.462;2022-07-18T13:07:57;3.72;;;2.00;;
22150;SDS011;11241;47.078;15.462;2022-07-18T13:10:15;5.20;;;1.83;;
22150;SDS011;11241;47.078;15.462;2022-07-18T13:12:33;4.20;;;2.10;;
22150;SDS011;11241;47.078;15.462;2022-07-18T13:14:51;4.68;;;2.22;;
22150;SDS011;11241;47.078;15.462;2022-07-18T13:17:09;3.08;;;1.80;;
22150;SDS011;11241;47.078;15.462;2022-07-18T13:19:27;3.47;;;1.83;;
22150;SDS011;11241;47.078;15.462;2022-07-18T13:21:45;4.45;;;2.10;;
22150;SDS011;11241;47.078;15.462;2022-07-18T13:24:04;3.22;;;2.08;;
22150;SDS011;11241;47.078;15.462;2022-07-18T13:26:21;3.47;;;1.98;;
22150;SDS011;11241;47.078;15.462;2022-07-18T13:28:39;7.07;;;1.90;;
22150;SDS011;11241;47.078;15.462;2022-07-18T13:30:57;3.00;;;2.20;;
22150;SDS011;11241;47.078;15.462;2022-07-18T13:33:15;4.07;;;2.10;;
22150;SDS011;11241;47.078;15.462;2022-07-18T13:35:33;3.63;;;1.85;;
22150;SDS011;11241;47.078;15.462;2022-07-18T13:37:51;8.60;;;2.40;;
22150;SDS011;11241;47.078;15.462;2022-07-18T13:40:09;3.05;;;2.00;;
22150;SDS011;11241;47.078;15.462;2022-07-18T13:42:27;3.72;;;1.85;;
22150;SDS011;11241;47.078;15.462;2022-07-18T13:44:46;6.22;;;2.25;;
22150;SDS011;11241;47.078;15.462;2022-07-18T13:47:04;3.90;;;2.20;;
22150;SDS011;11241;47.078;15.462;2022-07-18T13:49:21;5.30;;;2.15;;
22150;SDS011;11241;47.078;15.462;2022-07-18T13:51:40;4.40;;;1.98;;
22150;SDS011;11241;47.078;15.462;2022-07-18T13:53:58;6.78;;;2.00;;
22150;SDS011;11241;47.078;15.462;2022-07-18T13:56:16;3.30;;;1.88;;
22150;SDS011;11241;47.078;15.462;2022-07-18T13:58:33;5.20;;;2.00;;
22150;SDS011;11241;47.078;15.462;2022-07-18T14:00:51;5.65;;;2.47;;
22150;SDS011;11241;47.078;15.462;2022-07-18T14:03:09;6.22;;;1.90;;
22150;SDS011;11241;47.078;15.462;2022-07-18T14:05:28;3.25;;;2.30;;
22150;SDS011;11241;47.078;15.462;2022-07-18T14:07:45;2.65;;;2.20;;
22150;SDS011;11241;47.078;15.462;2022-07-18T14:10:05;4.68;;;1.90;;
22150;SDS011;11241;47.078;15.462;2022-07-18T14:12:23;3.22;;;2.10;;